LHB4 LFKF-LEAM
Flight info
| Callsign | LHB4 |
|---|---|
| Flight time | 1h 40m |
| Altitude | 19000 |
| Route | NEGAT UT451 BUKID M601 MUREN/N0490F450 M601 BCN M985 VLC N860 DOSEK |
| Aircraft | C750/M-SBDE3FGHRWXY/S |
Departure
| Time | 2026-04-30 10:44 |
|---|---|
| Airport | Figari Sud-Corse Airport (LFKF) |
Arrival
| Time | 2026-04-30 12:24 |
|---|---|
| Airport | Almería Airport (LEAM) |
| Time | Latitude | Longitude | Altitude | Speed | Heading |
|---|---|---|---|---|---|
| 2026-04-30 10:27 | 41.50080 | 9.09985 | 68 ft | 0 kts | 227° |
| 2026-04-30 10:41 | 41.50070 | 9.09954 | 67 ft | 7 kts | 283° |
| 2026-04-30 10:41 | 41.50105 | 9.09905 | 68 ft | 9 kts | 317° |
| 2026-04-30 10:41 | 41.50103 | 9.09809 | 68 ft | 11 kts | 292° |
| 2026-04-30 10:41 | 41.50152 | 9.09746 | 64 ft | 10 kts | 319° |
| 2026-04-30 10:42 | 41.50186 | 9.09639 | 68 ft | 16 kts | 236° |
| 2026-04-30 10:42 | 41.50104 | 9.09522 | 71 ft | 22 kts | 226° |
| 2026-04-30 10:42 | 41.49959 | 9.09310 | 72 ft | 38 kts | 227° |
| 2026-04-30 10:42 | 41.49889 | 9.09229 | 66 ft | 2 kts | 116° |
| 2026-04-30 10:43 | 41.49907 | 9.09236 | 70 ft | 6 kts | 17° |
| 2026-04-30 10:43 | 41.49916 | 9.09246 | 71 ft | 4 kts | 44° |
| 2026-04-30 10:43 | 41.50200 | 9.09657 | 62 ft | 113 kts | 47° |
| 2026-04-30 10:43 | 41.50811 | 9.10550 | 318 ft | 130 kts | 49° |
| 2026-04-30 10:44 | 41.51404 | 9.11433 | 614 ft | 140 kts | 51° |
| 2026-04-30 10:44 | 41.52038 | 9.12558 | 1016 ft | 162 kts | 62° |
| 2026-04-30 10:44 | 41.52349 | 9.14019 | 1746 ft | 161 kts | 83° |
| 2026-04-30 10:44 | 41.52860 | 9.15384 | 2312 ft | 177 kts | 48° |
| 2026-04-30 10:45 | 41.53798 | 9.16477 | 3033 ft | 182 kts | 43° |
| 2026-04-30 10:45 | 41.54704 | 9.17788 | 3527 ft | 200 kts | 51° |
| 2026-04-30 10:45 | 41.55525 | 9.19282 | 4330 ft | 201 kts | 56° |
| 2026-04-30 10:45 | 41.55914 | 9.21103 | 5002 ft | 211 kts | 86° |
| 2026-04-30 10:46 | 41.55562 | 9.23025 | 5732 ft | 221 kts | 114° |
| 2026-04-30 10:46 | 41.54459 | 9.24509 | 6339 ft | 234 kts | 148° |
| 2026-04-30 10:46 | 41.52888 | 9.24970 | 6996 ft | 240 kts | 182° |
| 2026-04-30 10:46 | 41.51318 | 9.24150 | 7700 ft | 245 kts | 222° |
| 2026-04-30 10:47 | 41.50388 | 9.22339 | 8860 ft | 232 kts | 251° |
| 2026-04-30 10:47 | 41.49870 | 9.20339 | 9864 ft | 233 kts | 255° |
| 2026-04-30 10:47 | 41.49386 | 9.18275 | 10753 ft | 232 kts | 257° |
| 2026-04-30 10:47 | 41.48893 | 9.16220 | 11561 ft | 236 kts | 255° |
| 2026-04-30 10:48 | 41.48378 | 9.14116 | 12384 ft | 239 kts | 257° |
| 2026-04-30 10:48 | 41.47863 | 9.12014 | 13303 ft | 239 kts | 257° |
| 2026-04-30 10:48 | 41.47345 | 9.09885 | 14055 ft | 245 kts | 256° |
| 2026-04-30 10:48 | 41.47075 | 9.07581 | 14320 ft | 264 kts | 270° |
| 2026-04-30 10:49 | 41.47008 | 9.05006 | 14462 ft | 292 kts | 270° |
| 2026-04-30 10:49 | 41.46907 | 9.02179 | 14556 ft | 319 kts | 269° |
| 2026-04-30 10:49 | 41.46753 | 8.99110 | 14603 ft | 344 kts | 268° |
| 2026-04-30 10:49 | 41.46595 | 8.95854 | 14924 ft | 356 kts | 268° |
| 2026-04-30 10:50 | 41.46451 | 8.92564 | 15654 ft | 356 kts | 269° |
| 2026-04-30 10:50 | 41.46307 | 8.89253 | 16280 ft | 360 kts | 268° |
| 2026-04-30 10:50 | 41.46153 | 8.85911 | 16965 ft | 362 kts | 268° |
| 2026-04-30 10:50 | 41.45996 | 8.82541 | 17657 ft | 366 kts | 268° |
| 2026-04-30 10:51 | 41.45840 | 8.79149 | 18353 ft | 369 kts | 268° |
| 2026-04-30 10:51 | 41.45682 | 8.75721 | 18982 ft | 372 kts | 268° |
| 2026-04-30 10:51 | 41.45521 | 8.72271 | 19633 ft | 375 kts | 268° |
| 2026-04-30 10:51 | 41.45357 | 8.68787 | 20264 ft | 378 kts | 268° |
| 2026-04-30 10:52 | 41.45190 | 8.65274 | 20924 ft | 381 kts | 268° |
| 2026-04-30 10:52 | 41.45022 | 8.61735 | 21573 ft | 385 kts | 268° |
| 2026-04-30 10:52 | 41.44851 | 8.58162 | 22215 ft | 388 kts | 268° |
| 2026-04-30 10:52 | 41.44676 | 8.54551 | 22852 ft | 392 kts | 268° |
| 2026-04-30 10:53 | 41.44500 | 8.50911 | 23482 ft | 395 kts | 268° |
| 2026-04-30 10:53 | 41.44320 | 8.47244 | 24047 ft | 398 kts | 268° |
| 2026-04-30 10:53 | 41.44138 | 8.43551 | 24593 ft | 400 kts | 268° |
| 2026-04-30 10:53 | 41.43954 | 8.39838 | 25135 ft | 403 kts | 268° |
| 2026-04-30 10:54 | 41.43768 | 8.36101 | 25670 ft | 405 kts | 268° |
| 2026-04-30 10:54 | 41.43580 | 8.32345 | 26181 ft | 408 kts | 268° |
| 2026-04-30 10:54 | 41.43389 | 8.28559 | 26695 ft | 411 kts | 268° |
| 2026-04-30 10:54 | 41.43194 | 8.24744 | 27227 ft | 414 kts | 268° |
| 2026-04-30 10:55 | 41.42998 | 8.20911 | 27746 ft | 416 kts | 268° |
| 2026-04-30 10:55 | 41.42799 | 8.17048 | 28275 ft | 419 kts | 268° |
| 2026-04-30 10:55 | 41.42598 | 8.13163 | 28798 ft | 422 kts | 268° |
| 2026-04-30 10:55 | 41.42397 | 8.09307 | 29297 ft | 425 kts | 268° |
| 2026-04-30 10:56 | 41.42190 | 8.05372 | 29799 ft | 427 kts | 268° |
| 2026-04-30 10:56 | 41.41980 | 8.01406 | 30278 ft | 430 kts | 268° |
| 2026-04-30 10:56 | 41.41764 | 7.97417 | 30717 ft | 432 kts | 267° |
| 2026-04-30 10:56 | 41.41287 | 7.93397 | 31141 ft | 436 kts | 259° |
| 2026-04-30 10:57 | 41.40426 | 7.89549 | 31885 ft | 433 kts | 253° |
| 2026-04-30 10:57 | 41.39231 | 7.85940 | 32624 ft | 431 kts | 246° |
| 2026-04-30 10:57 | 41.37688 | 7.82531 | 33341 ft | 431 kts | 240° |
| 2026-04-30 10:57 | 41.35822 | 7.79399 | 34045 ft | 432 kts | 233° |
| 2026-04-30 10:58 | 41.33703 | 7.76569 | 34620 ft | 432 kts | 230° |
| 2026-04-30 10:58 | 41.31556 | 7.73790 | 35142 ft | 431 kts | 230° |
| 2026-04-30 10:58 | 41.29422 | 7.71000 | 35663 ft | 430 kts | 230° |
| 2026-04-30 10:58 | 41.27286 | 7.68224 | 36226 ft | 428 kts | 230° |
| 2026-04-30 10:59 | 41.25155 | 7.65474 | 36768 ft | 427 kts | 230° |
| 2026-04-30 10:59 | 41.23028 | 7.62728 | 37306 ft | 425 kts | 230° |
| 2026-04-30 10:59 | 41.20916 | 7.59992 | 37853 ft | 424 kts | 230° |
| 2026-04-30 10:59 | 41.18804 | 7.57261 | 38424 ft | 422 kts | 230° |
| 2026-04-30 11:00 | 41.16708 | 7.54560 | 39001 ft | 419 kts | 231° |
| 2026-04-30 11:00 | 41.14620 | 7.51867 | 39356 ft | 420 kts | 230° |
| 2026-04-30 11:00 | 41.12520 | 7.49158 | 39692 ft | 421 kts | 230° |
| 2026-04-30 11:00 | 41.10418 | 7.46454 | 40023 ft | 422 kts | 230° |
| 2026-04-30 11:01 | 41.08300 | 7.43734 | 40369 ft | 424 kts | 230° |
| 2026-04-30 11:01 | 41.06183 | 7.41014 | 40725 ft | 425 kts | 230° |
| 2026-04-30 11:01 | 41.04056 | 7.38284 | 41085 ft | 426 kts | 229° |
| 2026-04-30 11:01 | 41.01924 | 7.35551 | 41443 ft | 427 kts | 229° |
| 2026-04-30 11:02 | 40.99787 | 7.32815 | 41799 ft | 428 kts | 229° |
| 2026-04-30 11:02 | 40.97641 | 7.30069 | 42153 ft | 429 kts | 229° |
| 2026-04-30 11:02 | 40.95506 | 7.27307 | 42496 ft | 429 kts | 231° |
| 2026-04-30 11:02 | 40.93642 | 7.24259 | 42809 ft | 425 kts | 239° |
| 2026-04-30 11:03 | 40.92150 | 7.20899 | 43165 ft | 422 kts | 247° |
| 2026-04-30 11:03 | 40.91057 | 7.17313 | 43500 ft | 420 kts | 255° |
| 2026-04-30 11:03 | 40.90375 | 7.13569 | 43844 ft | 418 kts | 263° |
| 2026-04-30 11:04 | 40.90217 | 7.05927 | 44505 ft | 417 kts | 274° |
| 2026-04-30 11:04 | 40.90368 | 7.02091 | 44811 ft | 418 kts | 274° |
| 2026-04-30 11:04 | 40.90504 | 6.98252 | 44972 ft | 421 kts | 274° |
| 2026-04-30 11:05 | 40.90801 | 6.90390 | 44979 ft | 435 kts | 274° |
| 2026-04-30 11:05 | 40.91098 | 6.82324 | 44971 ft | 449 kts | 273° |
| 2026-04-30 11:06 | 40.91397 | 6.73983 | 44974 ft | 457 kts | 273° |
| 2026-04-30 11:06 | 40.91694 | 6.65591 | 44977 ft | 457 kts | 273° |
| 2026-04-30 11:07 | 40.91938 | 6.58550 | 44977 ft | 457 kts | 273° |
| 2026-04-30 11:07 | 40.92224 | 6.50151 | 44978 ft | 458 kts | 273° |
| 2026-04-30 11:08 | 40.92502 | 6.41795 | 44976 ft | 459 kts | 273° |
| 2026-04-30 11:08 | 40.92776 | 6.33371 | 44976 ft | 458 kts | 273° |
| 2026-04-30 11:09 | 40.93044 | 6.24952 | 44977 ft | 458 kts | 273° |
| 2026-04-30 11:09 | 40.93305 | 6.16534 | 44976 ft | 458 kts | 273° |
| 2026-04-30 11:10 | 40.93561 | 6.08118 | 44976 ft | 458 kts | 272° |
| 2026-04-30 11:10 | 40.93810 | 5.99704 | 44977 ft | 458 kts | 272° |
| 2026-04-30 11:11 | 40.94054 | 5.91274 | 44976 ft | 461 kts | 272° |
| 2026-04-30 11:11 | 40.94291 | 5.82816 | 44976 ft | 460 kts | 272° |
| 2026-04-30 11:12 | 40.94523 | 5.74366 | 44977 ft | 460 kts | 272° |
| 2026-04-30 11:12 | 40.95007 | 5.65951 | 44971 ft | 458 kts | 278° |
| 2026-04-30 11:13 | 40.95955 | 5.57599 | 44981 ft | 459 kts | 278° |
| 2026-04-30 11:13 | 40.96876 | 5.49241 | 44982 ft | 459 kts | 278° |
| 2026-04-30 11:14 | 40.97811 | 5.40878 | 44978 ft | 459 kts | 278° |
| 2026-04-30 11:14 | 40.98724 | 5.32524 | 44976 ft | 459 kts | 278° |
| 2026-04-30 11:15 | 40.99640 | 5.24170 | 44979 ft | 459 kts | 278° |
| 2026-04-30 11:15 | 41.00545 | 5.15810 | 44980 ft | 459 kts | 278° |
| 2026-04-30 11:16 | 41.01447 | 5.07448 | 44978 ft | 459 kts | 277° |
| 2026-04-30 11:16 | 41.02342 | 4.99081 | 44976 ft | 459 kts | 277° |
| 2026-04-30 11:17 | 41.03233 | 4.90698 | 44974 ft | 459 kts | 277° |
| 2026-04-30 11:17 | 41.04116 | 4.82320 | 44978 ft | 459 kts | 277° |
| 2026-04-30 11:18 | 41.04995 | 4.73935 | 44979 ft | 459 kts | 277° |
| 2026-04-30 11:18 | 41.06310 | 4.61418 | 44983 ft | 459 kts | 278° |
| 2026-04-30 11:19 | 41.07236 | 4.53030 | 44977 ft | 462 kts | 277° |
| 2026-04-30 11:19 | 41.08135 | 4.44555 | 44979 ft | 461 kts | 277° |
| 2026-04-30 11:20 | 41.09039 | 4.36143 | 44975 ft | 461 kts | 277° |
| 2026-04-30 11:20 | 41.09920 | 4.27787 | 44976 ft | 461 kts | 277° |
| 2026-04-30 11:21 | 41.10806 | 4.19381 | 44973 ft | 461 kts | 277° |
| 2026-04-30 11:21 | 41.11687 | 4.10934 | 44976 ft | 462 kts | 277° |
| 2026-04-30 11:22 | 41.12562 | 4.02497 | 44972 ft | 462 kts | 277° |
| 2026-04-30 11:22 | 41.13431 | 3.94051 | 44977 ft | 462 kts | 277° |
| 2026-04-30 11:23 | 41.14294 | 3.85606 | 44980 ft | 462 kts | 277° |
| 2026-04-30 11:24 | 41.15579 | 3.72908 | 44972 ft | 463 kts | 277° |
| 2026-04-30 11:24 | 41.16432 | 3.64428 | 44973 ft | 463 kts | 277° |
| 2026-04-30 11:25 | 41.17697 | 3.51716 | 44972 ft | 463 kts | 277° |
| 2026-04-30 11:26 | 41.19359 | 3.34748 | 44968 ft | 463 kts | 276° |
| 2026-04-30 11:26 | 41.20180 | 3.26244 | 44974 ft | 466 kts | 276° |
| 2026-04-30 11:27 | 41.20996 | 3.17718 | 44979 ft | 465 kts | 276° |
| 2026-04-30 11:27 | 41.21673 | 3.09181 | 44962 ft | 465 kts | 270° |
| 2026-04-30 11:28 | 41.20668 | 3.00733 | 44971 ft | 468 kts | 252° |
| 2026-04-30 11:28 | 41.19418 | 2.96749 | 44976 ft | 468 kts | 245° |
| 2026-04-30 11:29 | 41.15976 | 2.89393 | 44989 ft | 470 kts | 239° |
| 2026-04-30 11:29 | 41.10837 | 2.78341 | 44988 ft | 469 kts | 240° |
| 2026-04-30 11:30 | 41.05638 | 2.67392 | 44982 ft | 468 kts | 240° |
| 2026-04-30 11:31 | 41.02181 | 2.60078 | 44985 ft | 468 kts | 239° |
| 2026-04-30 11:31 | 40.98710 | 2.52772 | 44984 ft | 468 kts | 239° |
| 2026-04-30 11:32 | 40.95256 | 2.45497 | 44981 ft | 469 kts | 239° |
| 2026-04-30 11:32 | 40.91765 | 2.38182 | 44983 ft | 468 kts | 239° |
| 2026-04-30 11:33 | 40.86554 | 2.27278 | 44971 ft | 465 kts | 239° |
| 2026-04-30 11:33 | 40.83114 | 2.20102 | 44970 ft | 466 kts | 239° |
| 2026-04-30 11:34 | 40.79644 | 2.12882 | 44966 ft | 466 kts | 239° |
| 2026-04-30 11:34 | 40.76171 | 2.05669 | 44968 ft | 466 kts | 239° |
| 2026-04-30 11:35 | 40.72691 | 1.98462 | 44971 ft | 466 kts | 239° |
| 2026-04-30 11:35 | 40.69207 | 1.91262 | 44968 ft | 466 kts | 239° |
| 2026-04-30 11:36 | 40.65717 | 1.84072 | 44971 ft | 466 kts | 238° |
| 2026-04-30 11:36 | 40.62221 | 1.76882 | 44972 ft | 466 kts | 238° |
| 2026-04-30 11:37 | 40.58724 | 1.69705 | 44974 ft | 466 kts | 238° |
| 2026-04-30 11:37 | 40.55220 | 1.62532 | 44974 ft | 466 kts | 238° |
| 2026-04-30 11:38 | 40.51709 | 1.55361 | 44972 ft | 466 kts | 238° |
| 2026-04-30 11:38 | 40.48194 | 1.48197 | 44975 ft | 467 kts | 238° |
| 2026-04-30 11:39 | 40.44673 | 1.41038 | 44973 ft | 466 kts | 238° |
| 2026-04-30 11:39 | 40.41148 | 1.33887 | 44974 ft | 466 kts | 238° |
| 2026-04-30 11:40 | 40.37621 | 1.26750 | 44971 ft | 466 kts | 238° |
| 2026-04-30 11:40 | 40.34086 | 1.19613 | 44973 ft | 466 kts | 238° |
| 2026-04-30 11:41 | 40.30550 | 1.12489 | 44977 ft | 467 kts | 238° |
| 2026-04-30 11:41 | 40.27004 | 1.05362 | 44976 ft | 467 kts | 238° |
| 2026-04-30 11:42 | 40.23459 | 0.98252 | 44973 ft | 465 kts | 238° |
| 2026-04-30 11:42 | 40.19915 | 0.91161 | 44968 ft | 466 kts | 238° |
| 2026-04-30 11:43 | 40.16368 | 0.84081 | 44964 ft | 466 kts | 238° |
| 2026-04-30 11:43 | 40.12812 | 0.76996 | 44968 ft | 468 kts | 238° |
| 2026-04-30 11:44 | 40.09241 | 0.69900 | 44976 ft | 467 kts | 237° |
| 2026-04-30 11:44 | 40.05665 | 0.62809 | 44979 ft | 467 kts | 237° |
| 2026-04-30 11:45 | 40.02084 | 0.55726 | 44963 ft | 467 kts | 237° |
| 2026-04-30 11:45 | 39.98539 | 0.48728 | 44962 ft | 466 kts | 237° |
| 2026-04-30 11:46 | 39.94962 | 0.41683 | 44963 ft | 466 kts | 237° |
| 2026-04-30 11:46 | 39.91380 | 0.34643 | 44963 ft | 467 kts | 237° |
| 2026-04-30 11:47 | 39.87791 | 0.27606 | 44959 ft | 466 kts | 237° |
| 2026-04-30 11:47 | 39.84199 | 0.20577 | 44957 ft | 466 kts | 237° |
| 2026-04-30 11:48 | 39.80605 | 0.13563 | 44964 ft | 466 kts | 237° |
| 2026-04-30 11:48 | 39.76995 | 0.06530 | 44970 ft | 467 kts | 237° |
| 2026-04-30 11:49 | 39.73379 | -0.00496 | 44968 ft | 467 kts | 237° |
| 2026-04-30 11:49 | 39.69747 | -0.07537 | 44959 ft | 469 kts | 237° |
| 2026-04-30 11:50 | 39.66113 | -0.14569 | 44959 ft | 469 kts | 237° |
| 2026-04-30 11:50 | 39.62473 | -0.21596 | 44959 ft | 469 kts | 237° |
| 2026-04-30 11:51 | 39.58833 | -0.28608 | 44960 ft | 469 kts | 237° |
| 2026-04-30 11:51 | 39.55183 | -0.35621 | 44958 ft | 470 kts | 237° |
| 2026-04-30 11:52 | 39.51526 | -0.42632 | 44961 ft | 469 kts | 236° |
| 2026-04-30 11:52 | 39.47118 | -0.48785 | 44952 ft | 472 kts | 220° |
| 2026-04-30 11:53 | 39.41501 | -0.53232 | 44971 ft | 476 kts | 210° |
| 2026-04-30 11:53 | 39.36621 | -0.56624 | 44959 ft | 476 kts | 211° |
| 2026-04-30 11:54 | 39.30803 | -0.60677 | 44961 ft | 475 kts | 210° |
| 2026-04-30 11:54 | 39.24980 | -0.64709 | 44956 ft | 475 kts | 210° |
| 2026-04-30 11:55 | 39.19156 | -0.68746 | 44956 ft | 475 kts | 210° |
| 2026-04-30 11:55 | 39.13334 | -0.72767 | 44955 ft | 475 kts | 210° |
| 2026-04-30 11:56 | 39.07515 | -0.76782 | 44959 ft | 474 kts | 210° |
| 2026-04-30 11:56 | 39.01779 | -0.80727 | 44446 ft | 462 kts | 210° |
| 2026-04-30 11:57 | 38.98983 | -0.82648 | 43894 ft | 449 kts | 210° |
| 2026-04-30 11:57 | 38.96267 | -0.84514 | 43364 ft | 437 kts | 210° |
| 2026-04-30 11:57 | 38.93621 | -0.86331 | 42848 ft | 426 kts | 210° |
| 2026-04-30 11:57 | 38.91026 | -0.88111 | 42345 ft | 420 kts | 210° |
| 2026-04-30 11:58 | 38.88457 | -0.89871 | 41838 ft | 418 kts | 210° |
| 2026-04-30 11:58 | 38.85888 | -0.91632 | 41361 ft | 420 kts | 210° |
| 2026-04-30 11:58 | 38.83303 | -0.93400 | 40871 ft | 422 kts | 210° |
| 2026-04-30 11:58 | 38.80713 | -0.95169 | 40370 ft | 422 kts | 210° |
| 2026-04-30 11:59 | 38.78125 | -0.96937 | 39870 ft | 421 kts | 210° |
| 2026-04-30 11:59 | 38.75543 | -0.98700 | 39371 ft | 420 kts | 210° |
| 2026-04-30 11:59 | 38.72966 | -1.00455 | 38870 ft | 419 kts | 210° |
| 2026-04-30 11:59 | 38.70395 | -1.02206 | 38323 ft | 419 kts | 210° |
| 2026-04-30 12:00 | 38.67817 | -1.03961 | 37827 ft | 421 kts | 210° |
| 2026-04-30 12:00 | 38.65226 | -1.05723 | 37329 ft | 423 kts | 210° |
| 2026-04-30 12:00 | 38.62625 | -1.07492 | 36830 ft | 424 kts | 210° |
| 2026-04-30 12:00 | 38.60008 | -1.09267 | 36324 ft | 426 kts | 210° |
| 2026-04-30 12:01 | 38.57381 | -1.11048 | 35819 ft | 428 kts | 209° |
| 2026-04-30 12:01 | 38.54743 | -1.12837 | 35308 ft | 430 kts | 209° |
| 2026-04-30 12:01 | 38.52094 | -1.14631 | 34812 ft | 432 kts | 209° |
| 2026-04-30 12:01 | 38.49438 | -1.16428 | 34283 ft | 432 kts | 209° |
| 2026-04-30 12:02 | 38.46775 | -1.18228 | 33705 ft | 434 kts | 209° |
| 2026-04-30 12:02 | 38.44109 | -1.20029 | 33188 ft | 435 kts | 209° |
| 2026-04-30 12:02 | 38.41429 | -1.21838 | 32673 ft | 436 kts | 209° |
| 2026-04-30 12:02 | 38.38743 | -1.23650 | 32155 ft | 437 kts | 209° |
| 2026-04-30 12:03 | 38.36051 | -1.25465 | 31632 ft | 439 kts | 209° |
| 2026-04-30 12:03 | 38.30634 | -1.29111 | 30588 ft | 443 kts | 209° |
| 2026-04-30 12:03 | 38.27924 | -1.30931 | 30052 ft | 438 kts | 209° |
| 2026-04-30 12:04 | 38.25245 | -1.32730 | 29504 ft | 434 kts | 209° |
| 2026-04-30 12:04 | 38.22588 | -1.34513 | 28990 ft | 430 kts | 209° |
| 2026-04-30 12:04 | 38.19982 | -1.36261 | 28485 ft | 428 kts | 209° |
| 2026-04-30 12:04 | 38.17362 | -1.38015 | 27978 ft | 424 kts | 209° |
| 2026-04-30 12:05 | 38.14766 | -1.39753 | 27484 ft | 421 kts | 209° |
| 2026-04-30 12:05 | 38.12180 | -1.41482 | 26985 ft | 417 kts | 209° |
| 2026-04-30 12:05 | 38.09627 | -1.43187 | 26489 ft | 414 kts | 209° |
| 2026-04-30 12:05 | 38.07082 | -1.44886 | 25994 ft | 411 kts | 209° |
| 2026-04-30 12:06 | 38.04562 | -1.46568 | 25517 ft | 408 kts | 209° |
| 2026-04-30 12:06 | 38.02053 | -1.48241 | 25020 ft | 406 kts | 209° |
| 2026-04-30 12:06 | 37.99566 | -1.49897 | 24518 ft | 403 kts | 209° |
| 2026-04-30 12:06 | 37.97092 | -1.51544 | 24027 ft | 400 kts | 209° |
| 2026-04-30 12:07 | 37.94636 | -1.53177 | 23510 ft | 397 kts | 208° |
| 2026-04-30 12:07 | 37.92198 | -1.54798 | 22977 ft | 395 kts | 208° |
| 2026-04-30 12:07 | 37.89768 | -1.56411 | 22480 ft | 393 kts | 208° |
| 2026-04-30 12:07 | 37.87343 | -1.57993 | 22002 ft | 391 kts | 208° |
| 2026-04-30 12:08 | 37.84918 | -1.59556 | 21524 ft | 390 kts | 208° |
| 2026-04-30 12:08 | 37.82510 | -1.61119 | 21054 ft | 388 kts | 208° |
| 2026-04-30 12:08 | 37.80116 | -1.62683 | 20575 ft | 386 kts | 208° |
| 2026-04-30 12:08 | 37.77733 | -1.64235 | 20107 ft | 385 kts | 208° |
| 2026-04-30 12:09 | 37.75354 | -1.65776 | 19651 ft | 383 kts | 208° |
| 2026-04-30 12:09 | 37.72985 | -1.67311 | 19178 ft | 382 kts | 208° |
| 2026-04-30 12:09 | 37.70629 | -1.68840 | 18731 ft | 380 kts | 208° |
| 2026-04-30 12:09 | 37.68274 | -1.70367 | 18250 ft | 380 kts | 208° |
| 2026-04-30 12:10 | 37.65934 | -1.71881 | 17779 ft | 376 kts | 208° |
| 2026-04-30 12:10 | 37.63614 | -1.73381 | 17335 ft | 373 kts | 208° |
| 2026-04-30 12:10 | 37.61314 | -1.74868 | 16898 ft | 370 kts | 208° |
| 2026-04-30 12:10 | 37.59028 | -1.76345 | 16464 ft | 368 kts | 208° |
| 2026-04-30 12:11 | 37.56758 | -1.77811 | 16028 ft | 365 kts | 208° |
| 2026-04-30 12:11 | 37.54503 | -1.79266 | 15601 ft | 362 kts | 208° |
| 2026-04-30 12:11 | 37.52266 | -1.80709 | 15183 ft | 360 kts | 208° |
| 2026-04-30 12:11 | 37.50046 | -1.82141 | 14766 ft | 358 kts | 208° |
| 2026-04-30 12:12 | 37.47838 | -1.83562 | 14347 ft | 354 kts | 208° |
| 2026-04-30 12:12 | 37.45646 | -1.84972 | 13926 ft | 352 kts | 208° |
| 2026-04-30 12:12 | 37.43479 | -1.86365 | 13499 ft | 349 kts | 208° |
| 2026-04-30 12:12 | 37.41322 | -1.87752 | 13093 ft | 347 kts | 208° |
| 2026-04-30 12:13 | 37.39176 | -1.89130 | 12688 ft | 345 kts | 208° |
| 2026-04-30 12:13 | 37.37040 | -1.90501 | 12292 ft | 345 kts | 208° |
| 2026-04-30 12:13 | 37.34913 | -1.91865 | 11924 ft | 342 kts | 208° |
| 2026-04-30 12:13 | 37.32829 | -1.93200 | 11534 ft | 340 kts | 208° |
| 2026-04-30 12:14 | 37.30730 | -1.94545 | 11145 ft | 337 kts | 208° |
| 2026-04-30 12:14 | 37.28712 | -1.95835 | 10756 ft | 313 kts | 208° |
| 2026-04-30 12:14 | 37.26835 | -1.97035 | 10406 ft | 292 kts | 208° |
| 2026-04-30 12:14 | 37.25072 | -1.98164 | 10063 ft | 280 kts | 209° |
| 2026-04-30 12:15 | 37.23381 | -1.99331 | 9702 ft | 274 kts | 211° |
| 2026-04-30 12:15 | 37.21695 | -2.00448 | 9389 ft | 274 kts | 208° |
| 2026-04-30 12:15 | 37.19994 | -2.01538 | 9089 ft | 274 kts | 208° |
| 2026-04-30 12:15 | 37.18318 | -2.02657 | 8784 ft | 273 kts | 210° |
| 2026-04-30 12:16 | 37.16646 | -2.03789 | 8470 ft | 272 kts | 210° |
| 2026-04-30 12:16 | 37.14981 | -2.04903 | 8175 ft | 271 kts | 209° |
| 2026-04-30 12:16 | 37.13309 | -2.06014 | 7872 ft | 271 kts | 210° |
| 2026-04-30 12:16 | 37.11653 | -2.07119 | 7569 ft | 269 kts | 210° |
| 2026-04-30 12:17 | 37.08315 | -2.09182 | 6928 ft | 269 kts | 197° |
| 2026-04-30 12:17 | 37.06436 | -2.09354 | 6647 ft | 270 kts | 182° |
| 2026-04-30 12:17 | 37.04554 | -2.09344 | 6350 ft | 273 kts | 182° |
| 2026-04-30 12:18 | 37.02661 | -2.09361 | 6064 ft | 273 kts | 182° |
| 2026-04-30 12:18 | 37.00768 | -2.09382 | 5762 ft | 271 kts | 181° |
| 2026-04-30 12:18 | 36.98892 | -2.09394 | 5458 ft | 268 kts | 182° |
| 2026-04-30 12:18 | 36.97071 | -2.09405 | 5162 ft | 254 kts | 182° |
| 2026-04-30 12:19 | 36.95342 | -2.09417 | 4882 ft | 243 kts | 182° |
| 2026-04-30 12:19 | 36.93669 | -2.09433 | 4607 ft | 239 kts | 183° |
| 2026-04-30 12:19 | 36.92070 | -2.09843 | 4279 ft | 235 kts | 208° |
| 2026-04-30 12:19 | 36.90864 | -2.11164 | 4035 ft | 232 kts | 236° |
| 2026-04-30 12:20 | 36.90247 | -2.13000 | 3825 ft | 230 kts | 253° |
| 2026-04-30 12:20 | 36.89789 | -2.14928 | 3614 ft | 232 kts | 254° |
| 2026-04-30 12:20 | 36.89320 | -2.16859 | 3366 ft | 233 kts | 253° |
| 2026-04-30 12:20 | 36.88847 | -2.18791 | 3110 ft | 233 kts | 253° |
| 2026-04-30 12:21 | 36.88375 | -2.20726 | 2782 ft | 229 kts | 253° |
| 2026-04-30 12:21 | 36.87923 | -2.22581 | 2433 ft | 218 kts | 252° |
| 2026-04-30 12:21 | 36.87491 | -2.24355 | 2099 ft | 208 kts | 251° |
| 2026-04-30 12:21 | 36.87097 | -2.25972 | 1774 ft | 178 kts | 251° |
| 2026-04-30 12:22 | 36.86771 | -2.27313 | 1511 ft | 152 kts | 251° |
| 2026-04-30 12:22 | 36.86470 | -2.28549 | 1317 ft | 142 kts | 252° |
| 2026-04-30 12:22 | 36.86199 | -2.29677 | 1080 ft | 128 kts | 250° |
| 2026-04-30 12:22 | 36.85941 | -2.30744 | 945 ft | 128 kts | 248° |
| 2026-04-30 12:23 | 36.85682 | -2.31806 | 776 ft | 128 kts | 249° |
| 2026-04-30 12:23 | 36.85397 | -2.32889 | 559 ft | 136 kts | 249° |
| 2026-04-30 12:23 | 36.85130 | -2.34000 | 331 ft | 133 kts | 249° |
| 2026-04-30 12:23 | 36.84868 | -2.35072 | 142 ft | 126 kts | 250° |
| 2026-04-30 12:24 | 36.84621 | -2.36083 | 59 ft | 109 kts | 252° |
| 2026-04-30 12:24 | 36.84422 | -2.36904 | 56 ft | 89 kts | 254° |
| 2026-04-30 12:24 | 36.84269 | -2.37529 | 61 ft | 46 kts | 253° |
| 2026-04-30 12:24 | 36.84202 | -2.37826 | 57 ft | 31 kts | 258° |
| 2026-04-30 12:25 | 36.84209 | -2.38069 | 56 ft | 19 kts | 283° |
| 2026-04-30 12:25 | 36.84234 | -2.38186 | 61 ft | 12 kts | 309° |
| 2026-04-30 12:25 | 36.84285 | -2.38163 | 62 ft | 9 kts | 70° |
| 2026-04-30 12:25 | 36.84303 | -2.38090 | 61 ft | 9 kts | 71° |
| 2026-04-30 12:26 | 36.84337 | -2.37959 | 58 ft | 22 kts | 72° |
| 2026-04-30 12:26 | 36.84450 | -2.37918 | 65 ft | 17 kts | 14° |
| 2026-04-30 12:26 | 36.84506 | -2.37861 | 64 ft | 6 kts | 358° |
| 2026-04-30 12:26 | 36.84540 | -2.37870 | 67 ft | 4 kts | 2° |
| 2026-04-30 12:27 | 36.84548 | -2.37854 | 62 ft | 2 kts | 96° |
| 2026-04-30 12:27 | 36.84545 | -2.37842 | 67 ft | 2 kts | 104° |
| 2026-04-30 12:27 | 36.84544 | -2.37835 | 67 ft | 0 kts | 104° |